sensor_id;sensor_type;location;lat;lon;timestamp;pressure;altitude;pressure_sealevel;temperature;humidity
72428;BME280;60419;48.880;18.036;2023-10-09T00:02:27;100049.94;;;7.34;61.50
72428;BME280;60419;48.880;18.036;2023-10-09T00:05:14;100043.13;;;6.84;64.21
72428;BME280;60419;48.880;18.036;2023-10-09T00:08:08;100025.09;;;7.11;63.34
72428;BME280;60419;48.880;18.036;2023-10-09T00:10:54;100026.59;;;7.35;62.92
72428;BME280;60419;48.880;18.036;2023-10-09T00:13:40;100012.56;;;7.75;60.46
72428;BME280;60419;48.880;18.036;2023-10-09T00:16:35;100022.84;;;7.98;59.81
72428;BME280;60419;48.880;18.036;2023-10-09T00:19:25;100033.66;;;8.09;59.41
72428;BME280;60419;48.880;18.036;2023-10-09T00:22:18;100033.41;;;8.15;59.09
72428;BME280;60419;48.880;18.036;2023-10-09T00:25:11;100042.41;;;7.73;60.25
72428;BME280;60419;48.880;18.036;2023-10-09T00:27:56;100040.31;;;7.91;59.80
72428;BME280;60419;48.880;18.036;2023-10-09T00:30:44;100037.88;;;7.79;60.67
72428;BME280;60419;48.880;18.036;2023-10-09T00:33:30;100012.53;;;6.85;62.81
72428;BME280;60419;48.880;18.036;2023-10-09T00:36:15;100022.63;;;7.05;63.68
72428;BME280;60419;48.880;18.036;2023-10-09T00:39:05;100027.38;;;7.83;60.94
72428;BME280;60419;48.880;18.036;2023-10-09T00:42:08;100020.75;;;8.11;60.14
72428;BME280;60419;48.880;18.036;2023-10-09T00:44:57;100015.41;;;8.26;59.69
72428;BME280;60419;48.880;18.036;2023-10-09T00:47:48;100012.81;;;7.68;60.97
72428;BME280;60419;48.880;18.036;2023-10-09T00:50:34;100006.56;;;7.63;61.82
72428;BME280;60419;48.880;18.036;2023-10-09T00:53:24;99997.94;;;7.13;63.33
72428;BME280;60419;48.880;18.036;2023-10-09T00:56:16;99989.66;;;7.67;60.70
72428;BME280;60419;48.880;18.036;2023-10-09T00:59:06;99987.09;;;8.03;59.93
72428;BME280;60419;48.880;18.036;2023-10-09T01:01:52;99988.97;;;7.97;60.41
72428;BME280;60419;48.880;18.036;2023-10-09T01:04:49;99978.63;;;7.64;61.50
72428;BME280;60419;48.880;18.036;2023-10-09T01:07:35;99992.09;;;7.69;61.32
72428;BME280;60419;48.880;18.036;2023-10-09T01:10:22;99989.63;;;7.57;61.57
72428;BME280;60419;48.880;18.036;2023-10-09T01:13:07;99979.47;;;7.74;61.00
72428;BME280;60419;48.880;18.036;2023-10-09T01:15:55;99978.66;;;7.69;61.03
72428;BME280;60419;48.880;18.036;2023-10-09T01:18:44;99947.72;;;7.66;61.13
72428;BME280;60419;48.880;18.036;2023-10-09T01:21:30;99974.19;;;8.05;59.92
72428;BME280;60419;48.880;18.036;2023-10-09T01:24:16;99932.69;;;7.81;60.34
72428;BME280;60419;48.880;18.036;2023-10-09T01:27:06;99977.06;;;7.78;61.04
72428;BME280;60419;48.880;18.036;2023-10-09T01:29:57;99983.06;;;8.06;60.52
72428;BME280;60419;48.880;18.036;2023-10-09T01:32:44;99954.84;;;8.34;59.75
72428;BME280;60419;48.880;18.036;2023-10-09T01:35:30;99947.28;;;8.05;60.60
72428;BME280;60419;48.880;18.036;2023-10-09T01:38:18;99957.22;;;7.37;62.94
72428;BME280;60419;48.880;18.036;2023-10-09T01:41:04;99944.63;;;6.95;64.19
72428;BME280;60419;48.880;18.036;2023-10-09T01:43:53;99922.19;;;7.69;61.83
72428;BME280;60419;48.880;18.036;2023-10-09T01:46:45;99914.72;;;8.12;60.60
72428;BME280;60419;48.880;18.036;2023-10-09T01:49:31;99916.88;;;8.10;59.75
72428;BME280;60419;48.880;18.036;2023-10-09T01:52:16;99903.13;;;8.06;60.36
72428;BME280;60419;48.880;18.036;2023-10-09T01:55:02;99897.22;;;8.14;58.93
72428;BME280;60419;48.880;18.036;2023-10-09T01:58:07;99899.38;;;8.33;59.05
72428;BME280;60419;48.880;18.036;2023-10-09T02:01:09;99906.28;;;7.62;61.23
72428;BME280;60419;48.880;18.036;2023-10-09T02:03:55;99907.97;;;8.09;59.71
72428;BME280;60419;48.880;18.036;2023-10-09T02:06:48;99918.44;;;7.80;60.63
72428;BME280;60419;48.880;18.036;2023-10-09T02:09:37;99917.91;;;7.83;60.57
72428;BME280;60419;48.880;18.036;2023-10-09T02:12:30;99915.69;;;7.65;62.14
72428;BME280;60419;48.880;18.036;2023-10-09T02:15:18;99910.94;;;8.03;61.87
72428;BME280;60419;48.880;18.036;2023-10-09T02:18:24;99914.19;;;8.00;61.39
72428;BME280;60419;48.880;18.036;2023-10-09T02:21:22;99915.97;;;6.26;66.44
72428;BME280;60419;48.880;18.036;2023-10-09T02:24:25;99908.34;;;6.87;64.69
72428;BME280;60419;48.880;18.036;2023-10-09T02:27:29;99906.25;;;5.92;67.41
72428;BME280;60419;48.880;18.036;2023-10-09T02:30:38;99905.50;;;6.61;65.71
72428;BME280;60419;48.880;18.036;2023-10-09T02:33:26;99902.06;;;6.71;65.08
72428;BME280;60419;48.880;18.036;2023-10-09T02:36:15;99912.44;;;7.00;64.54
72428;BME280;60419;48.880;18.036;2023-10-09T02:39:01;99890.16;;;7.62;61.73
72428;BME280;60419;48.880;18.036;2023-10-09T02:41:46;99897.28;;;7.36;62.32
72428;BME280;60419;48.880;18.036;2023-10-09T02:44:34;99905.44;;;7.51;61.80
72428;BME280;60419;48.880;18.036;2023-10-09T02:47:25;99893.44;;;7.80;61.03
72428;BME280;60419;48.880;18.036;2023-10-09T02:50:15;99880.72;;;6.97;63.53
72428;BME280;60419;48.880;18.036;2023-10-09T02:53:08;99882.75;;;6.74;64.83
72428;BME280;60419;48.880;18.036;2023-10-09T02:55:55;99873.84;;;6.26;65.53
72428;BME280;60419;48.880;18.036;2023-10-09T02:58:59;99876.66;;;6.89;64.19
72428;BME280;60419;48.880;18.036;2023-10-09T03:01:51;99836.34;;;7.47;61.83
72428;BME280;60419;48.880;18.036;2023-10-09T03:04:39;99843.69;;;8.28;59.52
72428;BME280;60419;48.880;18.036;2023-10-09T03:07:26;99824.19;;;8.72;59.01
72428;BME280;60419;48.880;18.036;2023-10-09T03:10:12;99792.94;;;8.76;58.45
72428;BME280;60419;48.880;18.036;2023-10-09T03:12:57;99801.59;;;8.68;58.85
72428;BME280;60419;48.880;18.036;2023-10-09T03:15:46;99810.31;;;8.14;60.26
72428;BME280;60419;48.880;18.036;2023-10-09T03:18:33;99803.03;;;8.19;60.04
72428;BME280;60419;48.880;18.036;2023-10-09T03:21:19;99802.22;;;7.73;61.23
72428;BME280;60419;48.880;18.036;2023-10-09T03:24:05;99828.41;;;6.52;65.05
72428;BME280;60419;48.880;18.036;2023-10-09T03:26:51;99829.47;;;5.81;66.10
72428;BME280;60419;48.880;18.036;2023-10-09T03:29:40;99844.19;;;6.11;66.92
72428;BME280;60419;48.880;18.036;2023-10-09T03:32:26;99827.34;;;5.56;68.77
72428;BME280;60419;48.880;18.036;2023-10-09T03:35:12;99816.47;;;6.80;81.23
72428;BME280;60419;48.880;18.036;2023-10-09T03:38:06;99848.91;;;6.31;69.37
72428;BME280;60419;48.880;18.036;2023-10-09T03:41:06;99830.31;;;5.87;71.00
72428;BME280;60419;48.880;18.036;2023-10-09T03:43:53;99830.25;;;5.49;72.56
72428;BME280;60419;48.880;18.036;2023-10-09T03:46:39;99852.81;;;5.81;72.44
72428;BME280;60419;48.880;18.036;2023-10-09T03:49:29;99834.94;;;5.91;71.87
72428;BME280;60419;48.880;18.036;2023-10-09T03:52:15;99842.69;;;6.20;70.26
72428;BME280;60419;48.880;18.036;2023-10-09T03:55:02;99842.81;;;6.45;69.09
72428;BME280;60419;48.880;18.036;2023-10-09T03:57:56;99847.22;;;6.57;67.87
72428;BME280;60419;48.880;18.036;2023-10-09T04:00:43;99849.19;;;6.77;67.08
72428;BME280;60419;48.880;18.036;2023-10-09T04:03:31;99856.41;;;6.71;65.82
72428;BME280;60419;48.880;18.036;2023-10-09T04:06:16;99849.75;;;6.79;66.43
72428;BME280;60419;48.880;18.036;2023-10-09T04:09:03;99806.34;;;7.07;65.47
72428;BME280;60419;48.880;18.036;2023-10-09T04:12:12;99781.53;;;7.63;64.52
72428;BME280;60419;48.880;18.036;2023-10-09T04:15:05;99811.28;;;6.63;66.27
72428;BME280;60419;48.880;18.036;2023-10-09T04:17:56;99794.97;;;7.48;63.74
72428;BME280;60419;48.880;18.036;2023-10-09T04:20:42;99797.16;;;7.97;63.38
72428;BME280;60419;48.880;18.036;2023-10-09T04:23:46;99784.50;;;8.13;61.78
72428;BME280;60419;48.880;18.036;2023-10-09T04:26:50;99747.31;;;8.15;62.56
72428;BME280;60419;48.880;18.036;2023-10-09T04:29:42;99743.22;;;8.48;61.54
72428;BME280;60419;48.880;18.036;2023-10-09T04:32:33;99764.78;;;8.38;62.32
72428;BME280;60419;48.880;18.036;2023-10-09T04:35:19;99761.34;;;8.07;62.68
72428;BME280;60419;48.880;18.036;2023-10-09T04:38:08;99752.75;;;7.94;63.06
72428;BME280;60419;48.880;18.036;2023-10-09T04:40:53;99749.22;;;7.99;62.61
72428;BME280;60419;48.880;18.036;2023-10-09T04:43:44;99775.19;;;7.01;66.23
72428;BME280;60419;48.880;18.036;2023-10-09T04:46:30;99776.25;;;6.95;67.31
72428;BME280;60419;48.880;18.036;2023-10-09T04:49:28;99779.97;;;6.89;67.33
72428;BME280;60419;48.880;18.036;2023-10-09T04:52:18;99757.06;;;7.65;64.64
72428;BME280;60419;48.880;18.036;2023-10-09T04:55:16;99758.38;;;7.62;65.58
72428;BME280;60419;48.880;18.036;2023-10-09T04:58:04;99746.28;;;7.75;64.47
72428;BME280;60419;48.880;18.036;2023-10-09T05:00:55;99718.97;;;6.79;67.68
72428;BME280;60419;48.880;18.036;2023-10-09T05:03:43;99691.56;;;6.67;68.25
72428;BME280;60419;48.880;18.036;2023-10-09T05:06:28;99722.03;;;7.14;67.29
72428;BME280;60419;48.880;18.036;2023-10-09T05:09:39;99728.44;;;7.07;67.89
72428;BME280;60419;48.880;18.036;2023-10-09T05:12:41;99719.63;;;7.22;67.88
72428;BME280;60419;48.880;18.036;2023-10-09T05:15:31;99728.34;;;6.77;69.31
72428;BME280;60419;48.880;18.036;2023-10-09T05:18:19;99745.66;;;7.06;69.00
72428;BME280;60419;48.880;18.036;2023-10-09T05:21:12;99734.28;;;6.79;69.76
72428;BME280;60419;48.880;18.036;2023-10-09T05:23:58;99729.63;;;6.06;72.78
72428;BME280;60419;48.880;18.036;2023-10-09T05:26:59;99715.09;;;5.60;74.64
72428;BME280;60419;48.880;18.036;2023-10-09T05:30:03;99709.75;;;5.60;75.02
72428;BME280;60419;48.880;18.036;2023-10-09T05:33:07;99709.84;;;6.12;73.56
72428;BME280;60419;48.880;18.036;2023-10-09T05:36:11;99708.22;;;6.64;72.04
72428;BME280;60419;48.880;18.036;2023-10-09T05:39:16;99717.25;;;7.46;69.25
72428;BME280;60419;48.880;18.036;2023-10-09T05:42:24;99701.66;;;7.69;68.36
72428;BME280;60419;48.880;18.036;2023-10-09T05:45:28;99683.06;;;8.03;66.93
72428;BME280;60419;48.880;18.036;2023-10-09T05:48:31;99703.41;;;8.40;64.86
72428;BME280;60419;48.880;18.036;2023-10-09T05:51:37;99708.66;;;9.20;79.28
72428;BME280;60419;48.880;18.036;2023-10-09T05:54:28;99704.47;;;8.99;63.63
72428;BME280;60419;48.880;18.036;2023-10-09T05:57:32;99707.19;;;9.43;62.08
72428;BME280;60419;48.880;18.036;2023-10-09T06:00:36;99703.13;;;9.01;61.80
72428;BME280;60419;48.880;18.036;2023-10-09T06:03:40;99676.63;;;9.14;62.90
72428;BME280;60419;48.880;18.036;2023-10-09T06:06:38;99659.34;;;9.54;60.90
72428;BME280;60419;48.880;18.036;2023-10-09T06:09:30;99667.25;;;9.01;61.31
72428;BME280;60419;48.880;18.036;2023-10-09T06:12:34;99658.75;;;8.34;64.11
72428;BME280;60419;48.880;18.036;2023-10-09T06:15:38;99641.31;;;8.16;64.32
72428;BME280;60419;48.880;18.036;2023-10-09T06:18:35;99662.03;;;8.20;64.51
72428;BME280;60419;48.880;18.036;2023-10-09T06:21:26;99638.88;;;8.14;64.49
72428;BME280;60419;48.880;18.036;2023-10-09T06:24:30;99632.16;;;8.12;64.69
72428;BME280;60419;48.880;18.036;2023-10-09T06:27:26;99628.69;;;8.11;65.12
72428;BME280;60419;48.880;18.036;2023-10-09T06:30:14;99623.88;;;8.63;62.75
72428;BME280;60419;48.880;18.036;2023-10-09T06:33:03;99613.69;;;8.94;61.89
72428;BME280;60419;48.880;18.036;2023-10-09T06:36:12;99629.13;;;8.83;62.14
72428;BME280;60419;48.880;18.036;2023-10-09T06:39:03;99619.44;;;8.82;60.67
72428;BME280;60419;48.880;18.036;2023-10-09T06:42:14;99601.03;;;8.50;61.64
72428;BME280;60419;48.880;18.036;2023-10-09T06:45:17;99592.91;;;8.06;58.82
72428;BME280;60419;48.880;18.036;2023-10-09T06:48:03;99591.25;;;8.15;59.63
72428;BME280;60419;48.880;18.036;2023-10-09T06:51:15;99585.44;;;8.47;58.39
72428;BME280;60419;48.880;18.036;2023-10-09T06:54:12;99586.47;;;8.56;54.72
72428;BME280;60419;48.880;18.036;2023-10-09T06:57:00;99577.09;;;8.49;52.38
72428;BME280;60419;48.880;18.036;2023-10-09T07:00:21;99599.28;;;8.20;52.47
72428;BME280;60419;48.880;18.036;2023-10-09T07:03:25;99601.84;;;8.51;51.83
72428;BME280;60419;48.880;18.036;2023-10-09T07:06:21;99617.00;;;8.41;52.08
72428;BME280;60419;48.880;18.036;2023-10-09T07:09:09;99623.44;;;8.85;51.96
72428;BME280;60419;48.880;18.036;2023-10-09T07:11:54;99618.44;;;9.07;51.59
72428;BME280;60419;48.880;18.036;2023-10-09T07:14:40;99607.97;;;8.61;51.84
72428;BME280;60419;48.880;18.036;2023-10-09T07:17:25;99595.78;;;8.74;53.19
72428;BME280;60419;48.880;18.036;2023-10-09T07:20:20;99590.50;;;8.54;52.95
72428;BME280;60419;48.880;18.036;2023-10-09T07:23:23;99595.66;;;9.24;52.07
72428;BME280;60419;48.880;18.036;2023-10-09T07:26:08;99587.91;;;8.88;52.21
72428;BME280;60419;48.880;18.036;2023-10-09T07:29:04;99590.38;;;9.14;51.46
72428;BME280;60419;48.880;18.036;2023-10-09T07:32:03;99588.47;;;9.19;51.39
72428;BME280;60419;48.880;18.036;2023-10-09T07:34:57;99583.19;;;9.04;51.73
72428;BME280;60419;48.880;18.036;2023-10-09T07:37:44;99576.56;;;9.20;51.83
72428;BME280;60419;48.880;18.036;2023-10-09T07:40:38;99571.75;;;8.83;52.98
72428;BME280;60419;48.880;18.036;2023-10-09T07:43:42;99574.97;;;9.19;52.99
72428;BME280;60419;48.880;18.036;2023-10-09T07:46:28;99582.88;;;9.40;52.83
72428;BME280;60419;48.880;18.036;2023-10-09T07:49:37;99555.16;;;9.34;53.97
72428;BME280;60419;48.880;18.036;2023-10-09T07:52:22;99583.88;;;9.49;55.66
72428;BME280;60419;48.880;18.036;2023-10-09T07:55:08;99600.97;;;8.66;59.08
72428;BME280;60419;48.880;18.036;2023-10-09T07:58:11;99591.66;;;8.87;58.39
72428;BME280;60419;48.880;18.036;2023-10-09T08:00:57;99574.28;;;9.03;57.94
72428;BME280;60419;48.880;18.036;2023-10-09T08:03:52;99574.00;;;9.05;56.01
72428;BME280;60419;48.880;18.036;2023-10-09T08:06:47;99573.75;;;9.06;54.25
72428;BME280;60419;48.880;18.036;2023-10-09T08:09:33;99570.50;;;9.04;54.61
72428;BME280;60419;48.880;18.036;2023-10-09T08:12:54;99565.25;;;8.89;54.75
72428;BME280;60419;48.880;18.036;2023-10-09T08:16:05;99570.88;;;8.93;53.47
72428;BME280;60419;48.880;18.036;2023-10-09T08:18:50;99563.91;;;9.21;52.93
72428;BME280;60419;48.880;18.036;2023-10-09T08:21:42;99567.91;;;9.28;52.12
72428;BME280;60419;48.880;18.036;2023-10-09T08:24:30;99561.66;;;9.33;51.55
72428;BME280;60419;48.880;18.036;2023-10-09T08:27:27;99551.97;;;9.27;51.71
72428;BME280;60419;48.880;18.036;2023-10-09T08:30:16;99548.72;;;9.59;50.44
72428;BME280;60419;48.880;18.036;2023-10-09T08:33:04;99547.63;;;9.60;50.67
72428;BME280;60419;48.880;18.036;2023-10-09T08:36:10;99540.28;;;9.66;51.22
72428;BME280;60419;48.880;18.036;2023-10-09T08:38:59;99527.44;;;9.58;51.52
72428;BME280;60419;48.880;18.036;2023-10-09T08:41:54;99525.19;;;9.65;51.50
72428;BME280;60419;48.880;18.036;2023-10-09T08:44:43;99535.03;;;9.50;52.43
72428;BME280;60419;48.880;18.036;2023-10-09T08:47:29;99515.88;;;9.76;52.01
72428;BME280;60419;48.880;18.036;2023-10-09T08:50:15;99510.47;;;10.00;51.25
72428;BME280;60419;48.880;18.036;2023-10-09T08:53:01;99503.72;;;9.79;52.04
72428;BME280;60419;48.880;18.036;2023-10-09T08:55:48;99454.59;;;9.58;53.03
72428;BME280;60419;48.880;18.036;2023-10-09T08:58:33;99410.84;;;9.18;53.51
72428;BME280;60419;48.880;18.036;2023-10-09T09:01:22;99400.97;;;9.75;53.52
72428;BME280;60419;48.880;18.036;2023-10-09T09:04:09;99392.66;;;10.09;53.58
72428;BME280;60419;48.880;18.036;2023-10-09T09:06:56;99388.28;;;9.57;56.31
72428;BME280;60419;48.880;18.036;2023-10-09T09:09:54;99433.63;;;9.31;57.21
72428;BME280;60419;48.880;18.036;2023-10-09T09:12:43;99443.69;;;9.68;55.12
72428;BME280;60419;48.880;18.036;2023-10-09T09:15:29;99484.25;;;9.82;55.11
72428;BME280;60419;48.880;18.036;2023-10-09T09:18:15;99482.09;;;9.60;55.52
72428;BME280;60419;48.880;18.036;2023-10-09T09:21:17;99485.25;;;9.14;56.66
72428;BME280;60419;48.880;18.036;2023-10-09T09:24:09;99470.75;;;9.39;56.21
72428;BME280;60419;48.880;18.036;2023-10-09T09:27:07;99475.75;;;9.21;56.44
72428;BME280;60419;48.880;18.036;2023-10-09T09:29:57;99466.59;;;9.70;55.89
72428;BME280;60419;48.880;18.036;2023-10-09T09:32:52;99485.56;;;9.84;56.04
72428;BME280;60419;48.880;18.036;2023-10-09T09:36:02;99499.00;;;8.88;57.80
72428;BME280;60419;48.880;18.036;2023-10-09T09:38:48;99484.75;;;9.41;57.25
72428;BME280;60419;48.880;18.036;2023-10-09T09:41:34;99483.25;;;9.54;57.96
72428;BME280;60419;48.880;18.036;2023-10-09T09:44:20;99457.66;;;9.94;57.88
72428;BME280;60419;48.880;18.036;2023-10-09T09:47:15;99443.44;;;9.16;62.74
72428;BME280;60419;48.880;18.036;2023-10-09T09:50:13;99467.66;;;9.21;62.04
72428;BME280;60419;48.880;18.036;2023-10-09T09:53:03;99468.50;;;8.58;64.81
72428;BME280;60419;48.880;18.036;2023-10-09T09:55:54;99479.22;;;8.98;65.08
72428;BME280;60419;48.880;18.036;2023-10-09T09:58:46;99475.59;;;8.49;66.46
72428;BME280;60419;48.880;18.036;2023-10-09T10:01:38;99471.41;;;8.67;68.49
72428;BME280;60419;48.880;18.036;2023-10-09T10:04:28;99468.47;;;8.93;67.12
72428;BME280;60419;48.880;18.036;2023-10-09T10:07:22;99469.38;;;9.12;68.46
72428;BME280;60419;48.880;18.036;2023-10-09T10:10:40;99472.69;;;9.33;67.75
72428;BME280;60419;48.880;18.036;2023-10-09T10:16:27;99488.53;;;9.11;68.93
72428;BME280;60419;48.880;18.036;2023-10-09T10:19:19;99451.56;;;8.87;68.15
72428;BME280;60419;48.880;18.036;2023-10-09T10:22:24;99480.69;;;8.85;69.96
72428;BME280;60419;48.880;18.036;2023-10-09T10:28:22;99483.63;;;8.54;71.82
72428;BME280;60419;48.880;18.036;2023-10-09T10:31:58;99472.75;;;8.30;73.50
72428;BME280;60419;48.880;18.036;2023-10-09T10:34:53;99461.94;;;8.35;73.45
72428;BME280;60419;48.880;18.036;2023-10-09T10:37:41;99452.00;;;7.91;74.62
72428;BME280;60419;48.880;18.036;2023-10-09T10:40:35;99439.16;;;8.23;74.21
72428;BME280;60419;48.880;18.036;2023-10-09T10:43:24;99429.50;;;8.22;73.81
72428;BME280;60419;48.880;18.036;2023-10-09T10:46:27;99423.78;;;8.33;72.94
72428;BME280;60419;48.880;18.036;2023-10-09T10:49:20;99423.19;;;8.95;71.90
72428;BME280;60419;48.880;18.036;2023-10-09T10:52:20;99431.25;;;8.71;73.51
72428;BME280;60419;48.880;18.036;2023-10-09T10:58:17;99417.25;;;9.22;70.33
72428;BME280;60419;48.880;18.036;2023-10-09T11:01:08;99422.34;;;9.23;71.94
72428;BME280;60419;48.880;18.036;2023-10-09T11:04:10;99410.94;;;9.56;72.20
72428;BME280;60419;48.880;18.036;2023-10-09T11:06:58;99418.44;;;8.86;72.90
72428;BME280;60419;48.880;18.036;2023-10-09T11:10:10;99423.63;;;9.07;72.00
72428;BME280;60419;48.880;18.036;2023-10-09T11:12:59;99426.56;;;8.81;72.09
72428;BME280;60419;48.880;18.036;2023-10-09T11:15:53;99434.56;;;8.92;71.39
72428;BME280;60419;48.880;18.036;2023-10-09T11:18:42;99414.28;;;8.99;73.07
72428;BME280;60419;48.880;18.036;2023-10-09T11:21:31;99402.41;;;9.48;72.83
72428;BME280;60419;48.880;18.036;2023-10-09T11:24:17;99392.69;;;9.28;74.13
72428;BME280;60419;48.880;18.036;2023-10-09T11:27:11;99407.91;;;9.62;71.87
72428;BME280;60419;48.880;18.036;2023-10-09T11:30:04;99408.94;;;9.66;72.66
72428;BME280;60419;48.880;18.036;2023-10-09T11:33:04;99405.09;;;9.00;74.81
72428;BME280;60419;48.880;18.036;2023-10-09T11:35:56;99400.78;;;9.47;73.59
72428;BME280;60419;48.880;18.036;2023-10-09T11:38:42;99390.38;;;9.41;73.22
72428;BME280;60419;48.880;18.036;2023-10-09T11:41:30;99385.63;;;8.79;74.82
72428;BME280;60419;48.880;18.036;2023-10-09T11:44:34;99368.34;;;9.10;74.65
72428;BME280;60419;48.880;18.036;2023-10-09T11:47:19;99387.91;;;9.44;73.18
72428;BME280;60419;48.880;18.036;2023-10-09T11:50:05;99394.47;;;9.76;71.48
72428;BME280;60419;48.880;18.036;2023-10-09T11:53:02;99397.31;;;9.47;72.74
72428;BME280;60419;48.880;18.036;2023-10-09T11:55:54;99398.69;;;9.44;72.51
72428;BME280;60419;48.880;18.036;2023-10-09T11:58:40;99397.09;;;9.19;74.53
72428;BME280;60419;48.880;18.036;2023-10-09T12:01:25;99398.69;;;9.63;72.93
72428;BME280;60419;48.880;18.036;2023-10-09T12:04:11;99393.47;;;9.05;75.14
72428;BME280;60419;48.880;18.036;2023-10-09T12:06:58;99385.06;;;8.82;76.50
72428;BME280;60419;48.880;18.036;2023-10-09T12:09:51;99373.16;;;8.89;75.74
72428;BME280;60419;48.880;18.036;2023-10-09T12:12:41;99377.13;;;8.96;76.65
72428;BME280;60419;48.880;18.036;2023-10-09T12:15:31;99375.34;;;9.35;74.73
72428;BME280;60419;48.880;18.036;2023-10-09T12:18:23;99359.94;;;9.40;74.27
72428;BME280;60419;48.880;18.036;2023-10-09T12:21:09;99377.88;;;9.88;73.52
72428;BME280;60419;48.880;18.036;2023-10-09T12:24:00;99391.78;;;9.57;74.63
72428;BME280;60419;48.880;18.036;2023-10-09T12:26:46;99396.06;;;9.39;75.42
72428;BME280;60419;48.880;18.036;2023-10-09T12:29:33;99364.56;;;9.11;76.43
72428;BME280;60419;48.880;18.036;2023-10-09T12:32:18;99392.03;;;8.89;78.06
72428;BME280;60419;48.880;18.036;2023-10-09T12:35:06;99405.84;;;9.54;75.02
72428;BME280;60419;48.880;18.036;2023-10-09T12:38:02;99401.03;;;9.51;73.45
72428;BME280;60419;48.880;18.036;2023-10-09T12:40:48;99401.59;;;9.24;75.20
72428;BME280;60419;48.880;18.036;2023-10-09T12:43:36;99398.94;;;9.19;76.95
72428;BME280;60419;48.880;18.036;2023-10-09T12:46:23;99410.72;;;9.52;75.39
72428;BME280;60419;48.880;18.036;2023-10-09T12:49:08;99374.88;;;9.03;76.47
72428;BME280;60419;48.880;18.036;2023-10-09T12:51:54;99354.88;;;9.34;76.46
72428;BME280;60419;48.880;18.036;2023-10-09T12:54:39;99343.06;;;9.29;75.34
72428;BME280;60419;48.880;18.036;2023-10-09T12:57:26;99355.69;;;9.53;74.13
72428;BME280;60419;48.880;18.036;2023-10-09T13:00:12;99342.03;;;9.01;77.05
72428;BME280;60419;48.880;18.036;2023-10-09T13:02:58;99325.88;;;9.01;77.36
72428;BME280;60419;48.880;18.036;2023-10-09T13:05:53;99302.41;;;8.54;78.69
72428;BME280;60419;48.880;18.036;2023-10-09T13:08:41;99319.59;;;9.06;77.37
72428;BME280;60419;48.880;18.036;2023-10-09T13:11:27;99331.31;;;8.96;77.53
72428;BME280;60419;48.880;18.036;2023-10-09T13:14:13;99334.84;;;9.16;77.96
72428;BME280;60419;48.880;18.036;2023-10-09T13:17:02;99338.03;;;8.99;78.62
72428;BME280;60419;48.880;18.036;2023-10-09T13:19:55;99338.13;;;9.37;76.59
72428;BME280;60419;48.880;18.036;2023-10-09T13:22:42;99345.28;;;8.98;76.98
72428;BME280;60419;48.880;18.036;2023-10-09T13:25:27;99342.38;;;8.71;78.75
72428;BME280;60419;48.880;18.036;2023-10-09T13:28:24;99333.00;;;9.11;77.87
72428;BME280;60419;48.880;18.036;2023-10-09T13:31:10;99337.09;;;8.84;79.65
72428;BME280;60419;48.880;18.036;2023-10-09T13:33:59;99332.69;;;8.40;81.94
72428;BME280;60419;48.880;18.036;2023-10-09T13:36:46;99331.00;;;9.22;79.56
72428;BME280;60419;48.880;18.036;2023-10-09T13:39:41;99338.03;;;8.99;79.90
72428;BME280;60419;48.880;18.036;2023-10-09T13:42:39;99334.13;;;9.10;79.73
72428;BME280;60419;48.880;18.036;2023-10-09T13:45:30;99333.41;;;9.66;77.76
72428;BME280;60419;48.880;18.036;2023-10-09T13:48:18;99330.34;;;9.54;77.89
72428;BME280;60419;48.880;18.036;2023-10-09T13:51:08;99307.38;;;9.76;77.07
72428;BME280;60419;48.880;18.036;2023-10-09T13:53:58;99311.97;;;9.56;78.53
72428;BME280;60419;48.880;18.036;2023-10-09T13:56:44;99315.34;;;9.24;78.42
72428;BME280;60419;48.880;18.036;2023-10-09T13:59:30;99307.72;;;9.50;78.10
72428;BME280;60419;48.880;18.036;2023-10-09T14:02:16;99300.81;;;9.63;76.77
72428;BME280;60419;48.880;18.036;2023-10-09T14:05:06;99301.03;;;9.28;77.99
72428;BME280;60419;48.880;18.036;2023-10-09T14:07:53;99294.03;;;9.27;78.35
72428;BME280;60419;48.880;18.036;2023-10-09T14:10:45;99299.66;;;9.50;78.04
72428;BME280;60419;48.880;18.036;2023-10-09T14:13:33;99291.78;;;9.54;77.56
72428;BME280;60419;48.880;18.036;2023-10-09T14:16:19;99276.63;;;8.96;80.74
72428;BME280;60419;48.880;18.036;2023-10-09T14:19:12;99279.19;;;9.06;79.66
72428;BME280;60419;48.880;18.036;2023-10-09T14:21:58;99282.09;;;8.67;81.12
72428;BME280;60419;48.880;18.036;2023-10-09T14:24:45;99287.19;;;9.11;80.08
72428;BME280;60419;48.880;18.036;2023-10-09T14:27:31;99279.84;;;8.74;81.12
72428;BME280;60419;48.880;18.036;2023-10-09T14:30:20;99273.72;;;8.68;82.47
72428;BME280;60419;48.880;18.036;2023-10-09T14:33:15;99263.00;;;9.06;81.00
72428;BME280;60419;48.880;18.036;2023-10-09T14:36:07;99272.53;;;9.22;79.94
72428;BME280;60419;48.880;18.036;2023-10-09T14:38:53;99259.56;;;9.62;77.95
72428;BME280;60419;48.880;18.036;2023-10-09T14:41:39;99269.00;;;9.79;77.02
72428;BME280;60419;48.880;18.036;2023-10-09T14:44:28;99264.59;;;9.69;77.48
72428;BME280;60419;48.880;18.036;2023-10-09T14:47:16;99246.88;;;9.25;77.69
72428;BME280;60419;48.880;18.036;2023-10-09T14:50:01;99267.44;;;9.40;78.38
72428;BME280;60419;48.880;18.036;2023-10-09T14:52:53;99274.03;;;9.85;77.17
72428;BME280;60419;48.880;18.036;2023-10-09T14:55:38;99255.66;;;9.36;79.46
72428;BME280;60419;48.880;18.036;2023-10-09T14:58:24;99259.06;;;8.98;80.21
72428;BME280;60419;48.880;18.036;2023-10-09T15:01:11;99239.13;;;8.80;81.17
72428;BME280;60419;48.880;18.036;2023-10-09T15:03:59;99253.19;;;8.72;82.68
72428;BME280;60419;48.880;18.036;2023-10-09T15:06:48;99233.34;;;8.44;83.80
72428;BME280;60419;48.880;18.036;2023-10-09T15:09:35;99245.75;;;8.64;83.26
72428;BME280;60419;48.880;18.036;2023-10-09T15:12:21;99246.75;;;8.73;82.57
72428;BME280;60419;48.880;18.036;2023-10-09T15:15:09;99239.34;;;8.84;80.77
72428;BME280;60419;48.880;18.036;2023-10-09T15:17:58;99232.63;;;9.43;78.85
72428;BME280;60419;48.880;18.036;2023-10-09T15:20:44;99233.47;;;9.58;77.94